createdAt,value
2018-12-15T00:00:45.039Z,54.35
2018-12-15T00:03:32.469Z,53.97
2018-12-15T00:06:19.536Z,52.27
2018-12-15T00:09:07.273Z,49.83
2018-12-15T00:11:55.457Z,52.63
2018-12-15T00:14:43.148Z,41.43
2018-12-15T00:17:30.729Z,42.20
2018-12-15T00:20:18.798Z,42.77
2018-12-15T00:23:07.293Z,47.17
2018-12-15T00:25:54.743Z,45.03
2018-12-15T00:28:42.125Z,41.70
2018-12-15T00:31:29.430Z,40.90
2018-12-15T00:34:16.303Z,41.87
2018-12-15T00:37:03.484Z,41.37
2018-12-15T00:39:50.349Z,39.07
2018-12-15T00:42:37.122Z,40.20
2018-12-15T00:48:31.298Z,40.83
2018-12-15T00:51:18.443Z,46.77
2018-12-15T00:54:05.791Z,39.23
2018-12-15T00:56:55.105Z,35.73
2018-12-15T00:59:42.805Z,38.07
2018-12-15T01:02:31.183Z,37.63
2018-12-15T01:05:23.271Z,45.38
2018-12-15T01:08:11.814Z,40.20
2018-12-15T01:10:58.990Z,36.00
2018-12-15T01:13:46.325Z,36.50
2018-12-15T01:16:34.420Z,37.40
2018-12-15T01:19:21.434Z,38.17
2018-12-15T01:22:08.789Z,40.67
2018-12-15T01:24:56.419Z,37.37
2018-12-15T01:27:44.319Z,43.33
2018-12-15T01:30:31.930Z,39.67
2018-12-15T01:33:19.416Z,37.37
2018-12-15T01:36:07.248Z,35.53
2018-12-15T01:38:54.781Z,41.90
2018-12-15T01:41:42.162Z,35.60
2018-12-15T01:44:30.372Z,47.67
2018-12-15T01:47:18.175Z,42.43
2018-12-15T01:50:05.800Z,38.33
2018-12-15T01:52:53.373Z,39.37
2018-12-15T01:55:40.958Z,38.60
2018-12-15T01:58:28.443Z,40.57
2018-12-15T02:01:15.885Z,39.37
2018-12-15T02:04:03.359Z,44.63
2018-12-15T02:06:50.937Z,44.20
2018-12-15T02:09:38.755Z,41.87
2018-12-15T02:12:27.596Z,43.30
2018-12-15T02:15:15.195Z,45.13
2018-12-15T02:18:03.440Z,44.67
2018-12-15T02:20:53.661Z,46.20
2018-12-15T02:23:41.139Z,49.10
2018-12-15T02:26:29.121Z,50.20
2018-12-15T02:29:17.441Z,54.23
2018-12-15T02:32:05.174Z,56.67
2018-12-15T02:34:54.293Z,55.47
2018-12-15T02:37:41.393Z,45.40
2018-12-15T02:40:28.723Z,48.67
2018-12-15T02:43:25.485Z,50.30
2018-12-15T02:46:13.026Z,48.03
2018-12-15T02:49:03.139Z,52.87
2018-12-15T02:51:53.457Z,49.00
2018-12-15T02:54:46.025Z,57.62
2018-12-15T02:57:33.947Z,53.73
2018-12-15T03:00:21.802Z,48.87
2018-12-15T03:03:08.456Z,48.10
2018-12-15T03:05:55.368Z,52.00
2018-12-15T03:08:42.855Z,46.53
2018-12-15T03:11:30.663Z,47.37
2018-12-15T03:14:17.896Z,52.57
2018-12-15T03:17:13.407Z,47.33
2018-12-15T03:20:00.520Z,49.37
2018-12-15T03:22:50.209Z,50.00
2018-12-15T03:25:37.641Z,46.17
2018-12-15T03:28:26.811Z,56.40
2018-12-15T03:31:14.170Z,57.50
2018-12-15T03:34:02.255Z,51.20
2018-12-15T03:36:49.724Z,51.47
2018-12-15T03:39:36.993Z,48.80
2018-12-15T03:42:25.425Z,50.70
2018-12-15T03:45:12.605Z,58.67
2018-12-15T03:48:00.367Z,49.77
2018-12-15T03:50:47.799Z,56.10
2018-12-15T03:53:35.324Z,47.87
2018-12-15T03:56:22.745Z,53.03
2018-12-15T03:59:19.393Z,46.73
2018-12-15T04:02:06.452Z,46.87
2018-12-15T04:04:53.744Z,48.23
2018-12-15T04:07:41.067Z,46.77
2018-12-15T04:10:28.334Z,49.03
2018-12-15T04:13:15.713Z,50.37
2018-12-15T04:16:02.583Z,47.60
2018-12-15T04:18:50.621Z,52.70
2018-12-15T04:21:37.432Z,43.90
2018-12-15T04:24:25.042Z,42.07
2018-12-15T04:27:20.021Z,49.50
2018-12-15T04:30:07.213Z,42.73
2018-12-15T04:32:54.568Z,43.70
2018-12-15T04:35:41.568Z,43.90
2018-12-15T04:38:28.930Z,42.23
2018-12-15T04:41:15.736Z,48.17
2018-12-15T04:44:02.854Z,41.03
2018-12-15T04:46:50.445Z,45.03
2018-12-15T04:49:37.906Z,41.60
2018-12-15T04:52:24.828Z,44.97
2018-12-15T04:55:11.824Z,41.67
2018-12-15T04:57:59.151Z,41.60
2018-12-15T05:00:46.370Z,39.77
2018-12-15T05:03:33.415Z,40.90
2018-12-15T05:06:20.776Z,38.77
2018-12-15T05:09:08.231Z,39.70
2018-12-15T05:11:55.681Z,43.73
2018-12-15T05:14:43.265Z,38.50
2018-12-15T05:17:30.708Z,40.53
2018-12-15T05:20:18.716Z,37.43
2018-12-15T05:23:06.448Z,41.20
2018-12-15T05:25:56.318Z,39.27
2018-12-15T05:28:49.521Z,37.57
2018-12-15T05:31:36.694Z,40.03
2018-12-15T05:34:24.426Z,38.90
2018-12-15T05:37:11.433Z,39.37
2018-12-15T05:39:58.934Z,35.33
2018-12-15T05:42:47.191Z,35.90
2018-12-15T05:45:34.266Z,36.80
2018-12-15T05:48:25.079Z,38.87
2018-12-15T05:54:17.213Z,33.57
2018-12-15T05:57:06.100Z,34.00
2018-12-15T05:59:53.331Z,32.13
2018-12-15T06:02:40.702Z,36.22
2018-12-15T06:05:28.021Z,30.03
2018-12-15T06:08:14.976Z,28.87
2018-12-15T06:11:02.443Z,29.30
2018-12-15T06:13:49.683Z,27.90
2018-12-15T06:16:37.199Z,28.03
2018-12-15T06:19:24.256Z,29.77
2018-12-15T06:22:11.406Z,27.50
2018-12-15T06:24:59.062Z,30.07
2018-12-15T06:27:46.263Z,29.07
2018-12-15T06:30:36.746Z,30.27
2018-12-15T06:33:25.794Z,28.63
2018-12-15T06:36:12.750Z,34.07
2018-12-15T06:39:10.246Z,30.93
2018-12-15T06:41:57.113Z,30.13
2018-12-15T06:44:45.490Z,29.93
2018-12-15T06:47:33.425Z,26.70
2018-12-15T06:50:21.594Z,30.40
2018-12-15T06:53:08.708Z,27.87
2018-12-15T06:55:55.992Z,28.17
2018-12-15T06:58:43.446Z,25.23
2018-12-15T07:01:30.679Z,30.83
2018-12-15T07:04:18.170Z,25.60
2018-12-15T07:07:05.301Z,28.03
2018-12-15T07:09:53.141Z,26.73
2018-12-15T07:12:40.171Z,25.80
2018-12-15T07:15:28.182Z,25.70
2018-12-15T07:18:15.377Z,25.33
2018-12-15T07:21:05.117Z,25.67
2018-12-15T07:23:53.769Z,26.65
2018-12-15T07:26:41.866Z,22.53
2018-12-15T07:29:29.144Z,23.20
2018-12-15T07:32:16.687Z,23.43
2018-12-15T07:35:03.722Z,23.67
2018-12-15T07:37:52.076Z,24.00
2018-12-15T07:40:39.679Z,23.47
2018-12-15T07:43:32.691Z,24.10
2018-12-15T07:46:19.939Z,22.10
2018-12-15T07:49:07.227Z,23.60
2018-12-15T07:51:54.496Z,21.60
2018-12-15T07:54:41.948Z,23.50
2018-12-15T07:57:29.668Z,23.80
2018-12-15T08:00:19.676Z,25.25
2018-12-15T08:03:07.709Z,27.83
2018-12-15T08:05:54.739Z,23.13
2018-12-15T08:08:42.092Z,22.43
2018-12-15T08:11:47.524Z,23.07
2018-12-15T08:14:35.291Z,22.40
2018-12-15T08:17:31.228Z,24.70
2018-12-15T08:20:18.037Z,21.33
2018-12-15T08:23:05.781Z,23.37
2018-12-15T08:28:58.985Z,27.08
2018-12-15T08:31:46.500Z,26.43
2018-12-15T08:34:33.327Z,23.30
2018-12-15T08:37:20.185Z,25.13
2018-12-15T08:40:07.761Z,23.33
2018-12-15T08:42:55.196Z,28.42
2018-12-15T08:45:44.767Z,24.70
2018-12-15T08:48:33.253Z,24.00
2018-12-15T08:51:20.547Z,23.43
2018-12-15T08:54:11.601Z,26.57
2018-12-15T08:56:58.835Z,26.87
2018-12-15T08:59:46.114Z,26.50
2018-12-15T09:02:33.233Z,25.73
2018-12-15T09:05:20.456Z,26.70
2018-12-15T09:08:07.626Z,26.27
2018-12-15T09:10:54.777Z,28.83
2018-12-15T09:13:43.233Z,29.35
2018-12-15T09:16:30.549Z,27.85
2018-12-15T09:19:25.399Z,25.63
2018-12-15T09:22:12.254Z,28.83
2018-12-15T09:24:59.139Z,27.73
2018-12-15T09:27:46.529Z,25.47
2018-12-15T09:30:33.734Z,23.63
2018-12-15T09:33:21.838Z,24.47
2018-12-15T09:39:18.494Z,25.90
2018-12-15T09:42:07.134Z,22.53
2018-12-15T09:44:54.658Z,23.70
2018-12-15T09:50:47.346Z,24.60
2018-12-15T09:53:34.729Z,24.07
2018-12-15T09:56:21.537Z,24.37
2018-12-15T09:59:08.589Z,24.50
2018-12-15T10:01:55.674Z,27.83
2018-12-15T10:04:42.860Z,23.83
2018-12-15T10:07:29.995Z,24.43
2018-12-15T10:10:17.276Z,21.83
2018-12-15T10:13:04.452Z,23.27
2018-12-15T10:15:51.510Z,27.27
2018-12-15T10:18:38.360Z,26.65
2018-12-15T10:21:26.709Z,24.30
2018-12-15T10:24:13.786Z,23.90
2018-12-15T10:27:00.649Z,23.03
2018-12-15T10:30:05.967Z,26.43
2018-12-15T10:32:54.278Z,25.77
2018-12-15T10:35:41.212Z,24.60
2018-12-15T10:38:28.523Z,21.27
2018-12-15T10:41:15.374Z,25.23
2018-12-15T10:44:02.430Z,26.87
2018-12-15T10:46:50.081Z,26.30
2018-12-15T10:49:36.976Z,27.43
2018-12-15T10:52:24.115Z,25.30
2018-12-15T10:55:11.318Z,26.73
2018-12-15T10:57:58.637Z,27.07
2018-12-15T11:00:57.624Z,26.47
2018-12-15T11:03:44.578Z,28.62
2018-12-15T11:06:31.850Z,24.90
2018-12-15T11:09:19.182Z,28.00
2018-12-15T11:12:06.698Z,26.77
2018-12-15T11:14:56.999Z,25.53
2018-12-15T11:17:45.018Z,28.07
2018-12-15T11:20:32.248Z,27.80
2018-12-15T11:23:19.618Z,27.33
2018-12-15T11:26:07.404Z,25.97
2018-12-15T11:28:54.722Z,26.30
2018-12-15T11:34:49.724Z,25.73
2018-12-15T11:40:42.056Z,27.37
2018-12-15T11:43:30.835Z,26.53
2018-12-15T11:46:16.452Z,25.57
2018-12-15T11:49:03.545Z,27.23
2018-12-15T11:54:57.116Z,25.43
2018-12-15T11:57:50.307Z,28.23
2018-12-15T12:00:40.003Z,26.37
2018-12-15T12:03:26.998Z,25.80
2018-12-15T12:06:14.100Z,27.33
2018-12-15T12:09:01.490Z,23.07
2018-12-15T12:11:49.023Z,28.35
2018-12-15T12:14:36.165Z,26.50
2018-12-15T12:17:23.010Z,22.83
2018-12-15T12:20:10.016Z,23.90
2018-12-15T12:22:57.114Z,23.33
2018-12-15T12:25:46.380Z,26.20
2018-12-15T12:28:34.338Z,21.63
2018-12-15T12:31:21.352Z,23.30
2018-12-15T12:34:08.502Z,23.10
2018-12-15T12:36:56.044Z,23.30
2018-12-15T12:39:46.016Z,22.87
2018-12-15T12:42:33.665Z,27.20
2018-12-15T12:45:20.897Z,24.13
2018-12-15T12:48:07.837Z,29.90
2018-12-15T12:50:55.476Z,28.17
2018-12-15T12:58:54.562Z,27.40
2018-12-15T13:01:42.067Z,27.20
2018-12-15T13:04:29.192Z,26.70
2018-12-15T13:07:16.812Z,25.03
2018-12-15T13:10:04.462Z,25.33
2018-12-15T13:12:52.136Z,28.83
2018-12-15T13:15:39.813Z,25.63
2018-12-15T13:18:26.938Z,24.03
2018-12-15T13:21:14.430Z,23.63
2018-12-15T13:24:01.594Z,22.90
2018-12-15T13:26:48.414Z,27.13
2018-12-15T13:29:35.642Z,26.47
2018-12-15T13:32:22.954Z,26.77
2018-12-15T13:35:10.171Z,28.17
2018-12-15T13:37:57.395Z,24.30
2018-12-15T13:40:44.503Z,25.57
2018-12-15T13:43:31.759Z,28.23
2018-12-15T13:46:20.272Z,32.83
2018-12-15T13:49:08.958Z,28.03
2018-12-15T13:51:56.226Z,26.30
2018-12-15T13:54:43.497Z,24.67
2018-12-15T13:57:30.384Z,26.50
2018-12-15T14:03:35.721Z,27.00
2018-12-15T14:06:23.754Z,29.13
2018-12-15T14:09:10.723Z,28.70
2018-12-15T14:11:59.936Z,27.00
2018-12-15T14:14:50.149Z,28.33
2018-12-15T14:17:37.525Z,28.83
2018-12-15T14:20:24.868Z,25.93
2018-12-15T14:23:15.661Z,27.00
2018-12-15T14:26:02.852Z,29.93
2018-12-15T14:28:50.723Z,29.20
2018-12-15T14:31:38.289Z,28.40
2018-12-15T14:34:25.606Z,30.03
2018-12-15T14:37:13.011Z,32.45
2018-12-15T14:40:00.609Z,31.63
2018-12-15T14:42:48.480Z,33.33
2018-12-15T14:45:36.003Z,28.50
2018-12-15T14:48:23.532Z,29.50
2018-12-15T14:51:23.296Z,29.93
2018-12-15T14:54:10.824Z,28.30
2018-12-15T14:56:57.942Z,28.93
2018-12-15T14:59:44.751Z,37.60
2018-12-15T15:05:40.811Z,31.47
2018-12-15T15:08:33.035Z,31.03
2018-12-15T15:11:23.473Z,27.50
2018-12-15T15:14:11.175Z,34.83
2018-12-15T15:17:05.589Z,37.45
2018-12-15T15:19:53.605Z,34.73
2018-12-15T15:22:41.255Z,31.57
2018-12-15T15:25:39.899Z,35.30
2018-12-15T15:28:27.766Z,33.43
2018-12-15T15:31:30.664Z,30.63
2018-12-15T15:34:20.847Z,34.10
2018-12-15T15:37:13.368Z,31.67
2018-12-15T15:40:01.198Z,32.23
2018-12-15T15:42:49.221Z,31.20
2018-12-15T15:45:37.119Z,38.10
2018-12-15T15:48:24.720Z,32.47
2018-12-15T15:51:12.251Z,33.93
2018-12-15T15:53:59.470Z,33.90
2018-12-15T15:56:47.089Z,34.27
2018-12-15T15:59:40.957Z,33.57
2018-12-15T16:02:27.963Z,32.40
2018-12-15T16:05:16.176Z,33.27
2018-12-15T16:08:04.456Z,33.47
2018-12-15T16:10:54.411Z,34.57
2018-12-15T16:13:42.617Z,39.42
2018-12-15T16:16:42.105Z,36.37
2018-12-15T16:19:29.475Z,31.30
2018-12-15T16:22:17.196Z,35.33
2018-12-15T16:25:04.357Z,29.47
2018-12-15T16:27:52.175Z,41.20
2018-12-15T16:30:43.053Z,34.50
2018-12-15T16:33:33.627Z,33.43
2018-12-15T16:36:21.293Z,32.00
2018-12-15T16:39:08.765Z,33.17
2018-12-15T16:41:55.944Z,33.63
2018-12-15T16:44:43.637Z,39.80
2018-12-15T16:47:31.142Z,35.67
2018-12-15T16:50:33.632Z,37.33
2018-12-15T16:53:20.622Z,32.73
2018-12-15T16:56:09.983Z,34.90
2018-12-15T16:58:59.113Z,32.03
2018-12-15T17:01:54.068Z,33.07
2018-12-15T17:04:41.140Z,36.85
2018-12-15T17:07:28.097Z,34.13
2018-12-15T17:10:15.866Z,34.37
2018-12-15T17:13:03.933Z,30.83
2018-12-15T17:15:52.881Z,30.53
2018-12-15T17:21:47.214Z,37.27
2018-12-15T17:24:34.468Z,37.27
2018-12-15T17:27:22.236Z,34.90
2018-12-15T17:30:09.227Z,33.07
2018-12-15T17:32:56.197Z,35.70
2018-12-15T17:35:44.916Z,34.73
2018-12-15T17:38:32.568Z,37.73
2018-12-15T17:41:19.376Z,32.87
2018-12-15T17:44:06.430Z,35.87
2018-12-15T17:46:53.743Z,37.77
2018-12-15T17:49:41.323Z,37.43
2018-12-15T17:52:28.710Z,39.50
2018-12-15T17:55:17.861Z,39.87
2018-12-15T17:58:05.253Z,32.23
2018-12-15T18:00:52.880Z,36.60
2018-12-15T18:03:40.186Z,43.10
2018-12-15T18:06:27.098Z,36.67
2018-12-15T18:09:30.956Z,37.80
2018-12-15T18:15:25.235Z,33.87
2018-12-15T18:18:17.350Z,36.70
2018-12-15T18:21:09.935Z,36.53
2018-12-15T18:23:55.106Z,36.97
2018-12-15T18:26:42.382Z,33.63
2018-12-15T18:29:29.834Z,36.10
2018-12-15T18:32:17.122Z,37.10
2018-12-15T18:35:04.368Z,35.57
2018-12-15T18:37:51.516Z,38.60
2018-12-15T18:40:39.192Z,34.57
2018-12-15T18:43:26.473Z,34.90
2018-12-15T18:46:13.683Z,33.03
2018-12-15T18:49:17.291Z,36.07
2018-12-15T18:52:13.403Z,42.92
2018-12-15T18:55:01.669Z,37.37
2018-12-15T18:57:51.977Z,43.83
2018-12-15T19:00:44.391Z,37.10
2018-12-15T19:03:31.242Z,42.78
2018-12-15T19:06:18.392Z,35.50
2018-12-15T19:09:05.307Z,35.57
2018-12-15T19:11:52.785Z,35.17
2018-12-15T19:14:43.009Z,36.20
2018-12-15T19:17:30.403Z,43.20
2018-12-15T19:20:25.710Z,39.30
2018-12-15T19:26:18.623Z,37.47
2018-12-15T19:29:05.838Z,35.90
2018-12-15T19:31:52.997Z,37.03
2018-12-15T19:34:40.405Z,39.00
2018-12-15T19:37:27.509Z,40.20
2018-12-15T19:40:15.027Z,39.20
2018-12-15T19:43:01.918Z,35.63
2018-12-15T19:45:49.403Z,48.58
2018-12-15T19:48:39.390Z,38.43
2018-12-15T19:51:29.703Z,36.50
2018-12-15T19:54:13.886Z,47.40
2018-12-15T19:57:00.751Z,42.43
2018-12-15T19:59:48.021Z,39.60
2018-12-15T20:02:35.483Z,41.00
2018-12-15T20:05:22.513Z,39.50
2018-12-15T20:08:09.961Z,41.03
2018-12-15T20:10:58.987Z,35.80
2018-12-15T20:13:46.204Z,39.60
2018-12-15T20:16:34.133Z,50.78
2018-12-15T20:19:29.850Z,49.13
2018-12-15T20:22:17.129Z,40.67
2018-12-15T20:25:04.393Z,36.37
2018-12-15T20:27:54.092Z,39.73
2018-12-15T20:30:57.239Z,39.30
2018-12-15T20:33:44.138Z,36.53
2018-12-15T20:36:33.437Z,50.00
2018-12-15T20:39:20.644Z,42.07
2018-12-15T20:42:08.120Z,43.60
2018-12-15T20:44:55.387Z,39.40
2018-12-15T20:47:42.802Z,51.65
2018-12-15T20:50:30.035Z,42.40
2018-12-15T20:53:18.061Z,42.70
2018-12-15T21:05:45.446Z,40.10
2018-12-15T21:08:34.613Z,40.03
2018-12-15T21:11:24.253Z,42.13
2018-12-15T21:14:09.260Z,42.17
2018-12-15T21:16:57.570Z,50.05
2018-12-15T21:19:48.039Z,43.77
2018-12-15T21:22:34.029Z,51.17
2018-12-15T21:25:21.440Z,45.23
2018-12-15T21:28:08.959Z,40.57
2018-12-15T21:30:56.365Z,38.20
2018-12-15T21:33:45.710Z,41.80
2018-12-15T21:36:34.660Z,41.63
2018-12-15T21:39:22.050Z,40.03
2018-12-15T21:42:09.573Z,40.27
2018-12-15T21:44:56.859Z,41.57
2018-12-15T21:47:45.408Z,41.53
2018-12-15T21:50:32.245Z,40.63
2018-12-15T21:53:19.299Z,42.47
2018-12-15T21:56:06.849Z,40.23
2018-12-15T21:58:54.327Z,46.67
2018-12-15T22:07:57.097Z,40.90
2018-12-15T22:10:43.677Z,46.83
2018-12-15T22:13:30.443Z,44.23
2018-12-15T22:19:23.174Z,40.00
2018-12-15T22:22:13.111Z,44.60
2018-12-15T22:25:10.580Z,40.50
2018-12-15T22:27:57.540Z,55.35
2018-12-15T22:30:44.373Z,45.50
2018-12-15T22:33:33.393Z,48.97
2018-12-15T22:36:20.814Z,47.37
2018-12-15T22:39:08.193Z,46.60
2018-12-15T22:41:55.030Z,45.73
2018-12-15T22:44:42.168Z,44.67
2018-12-15T22:47:29.316Z,43.93
2018-12-15T22:50:18.392Z,41.53
2018-12-15T22:53:05.490Z,46.27
2018-12-15T22:55:52.869Z,43.00
2018-12-15T22:58:39.949Z,42.23
2018-12-15T23:01:38.636Z,43.80
2018-12-15T23:04:26.926Z,45.97
2018-12-15T23:07:21.028Z,43.23
2018-12-15T23:10:11.212Z,50.10
2018-12-15T23:13:01.866Z,45.80
2018-12-15T23:15:52.282Z,45.17
2018-12-15T23:18:39.334Z,48.97
2018-12-15T23:21:27.685Z,45.77
2018-12-15T23:27:25.122Z,47.20
2018-12-15T23:30:15.099Z,44.33
2018-12-15T23:33:02.537Z,43.83
2018-12-15T23:42:12.445Z,55.83
2018-12-15T23:44:59.690Z,47.20
2018-12-15T23:47:46.995Z,47.23
2018-12-15T23:50:38.513Z,47.40
2018-12-15T23:53:26.008Z,47.87
2018-12-15T23:56:13.095Z,49.40
2018-12-15T23:59:00.058Z,56.83
